sensor_id;sensor_type;location;lat;lon;timestamp;P1;durP1;ratioP1;P2;durP2;ratioP2
39486;SDS011;25173;50.430;18.926;2023-02-28T00:02:10;18.35;;;8.75;;
39486;SDS011;25173;50.430;18.926;2023-02-28T00:05:12;15.55;;;7.95;;
39486;SDS011;25173;50.430;18.926;2023-02-28T00:08:15;15.73;;;8.20;;
39486;SDS011;25173;50.430;18.926;2023-02-28T00:11:16;14.18;;;8.18;;
39486;SDS011;25173;50.430;18.926;2023-02-28T00:14:16;18.75;;;8.50;;
39486;SDS011;25173;50.430;18.926;2023-02-28T00:17:17;17.17;;;8.70;;
39486;SDS011;25173;50.430;18.926;2023-02-28T00:20:21;21.27;;;9.05;;
39486;SDS011;25173;50.430;18.926;2023-02-28T00:23:22;18.35;;;9.00;;
39486;SDS011;25173;50.430;18.926;2023-02-28T00:26:22;22.48;;;10.13;;
39486;SDS011;25173;50.430;18.926;2023-02-28T00:29:23;23.27;;;10.50;;
39486;SDS011;25173;50.430;18.926;2023-02-28T00:32:24;24.10;;;12.85;;
39486;SDS011;25173;50.430;18.926;2023-02-28T00:35:25;22.92;;;11.85;;
39486;SDS011;25173;50.430;18.926;2023-02-28T00:38:25;19.33;;;10.90;;
39486;SDS011;25173;50.430;18.926;2023-02-28T00:41:27;19.25;;;10.00;;
39486;SDS011;25173;50.430;18.926;2023-02-28T00:44:28;22.13;;;10.50;;
39486;SDS011;25173;50.430;18.926;2023-02-28T00:47:30;20.98;;;10.98;;
39486;SDS011;25173;50.430;18.926;2023-02-28T00:50:31;19.60;;;11.25;;
39486;SDS011;25173;50.430;18.926;2023-02-28T00:53:31;21.58;;;12.70;;
39486;SDS011;25173;50.430;18.926;2023-02-28T00:56:32;20.83;;;11.82;;
39486;SDS011;25173;50.430;18.926;2023-02-28T00:59:34;22.30;;;12.60;;
39486;SDS011;25173;50.430;18.926;2023-02-28T01:02:35;21.73;;;10.70;;
39486;SDS011;25173;50.430;18.926;2023-02-28T01:05:35;14.18;;;7.97;;
39486;SDS011;25173;50.430;18.926;2023-02-28T01:08:36;17.15;;;8.25;;
39486;SDS011;25173;50.430;18.926;2023-02-28T01:11:37;18.08;;;8.15;;
39486;SDS011;25173;50.430;18.926;2023-02-28T01:14:38;18.13;;;8.52;;
39486;SDS011;25173;50.430;18.926;2023-02-28T01:17:38;15.10;;;8.48;;
39486;SDS011;25173;50.430;18.926;2023-02-28T01:20:39;19.38;;;9.00;;
39486;SDS011;25173;50.430;18.926;2023-02-28T01:23:40;15.70;;;8.65;;
39486;SDS011;25173;50.430;18.926;2023-02-28T01:26:41;17.58;;;8.88;;
39486;SDS011;25173;50.430;18.926;2023-02-28T01:29:41;15.15;;;8.30;;
39486;SDS011;25173;50.430;18.926;2023-02-28T01:32:43;15.98;;;8.30;;
39486;SDS011;25173;50.430;18.926;2023-02-28T01:35:44;13.82;;;7.63;;
39486;SDS011;25173;50.430;18.926;2023-02-28T01:38:44;16.95;;;9.00;;
39486;SDS011;25173;50.430;18.926;2023-02-28T01:41:45;13.50;;;7.95;;
39486;SDS011;25173;50.430;18.926;2023-02-28T01:48:04;15.93;;;8.05;;
39486;SDS011;25173;50.430;18.926;2023-02-28T01:51:12;16.10;;;7.88;;
39486;SDS011;25173;50.430;18.926;2023-02-28T01:54:16;17.23;;;7.53;;
39486;SDS011;25173;50.430;18.926;2023-02-28T01:57:22;15.70;;;8.90;;
39486;SDS011;25173;50.430;18.926;2023-02-28T02:00:28;15.60;;;8.38;;
39486;SDS011;25173;50.430;18.926;2023-02-28T02:03:30;18.05;;;9.15;;
39486;SDS011;25173;50.430;18.926;2023-02-28T02:06:36;18.75;;;9.57;;
39486;SDS011;25173;50.430;18.926;2023-02-28T02:09:44;17.98;;;8.88;;
39486;SDS011;25173;50.430;18.926;2023-02-28T02:26:28;16.30;;;8.75;;
39486;SDS011;25173;50.430;18.926;2023-02-28T02:36:23;14.57;;;8.10;;
39486;SDS011;25173;50.430;18.926;2023-02-28T02:42:52;15.57;;;8.50;;
39486;SDS011;25173;50.430;18.926;2023-02-28T02:46:06;15.05;;;7.85;;
39486;SDS011;25173;50.430;18.926;2023-02-28T02:49:15;16.67;;;8.73;;
39486;SDS011;25173;50.430;18.926;2023-02-28T02:52:22;15.30;;;8.98;;
39486;SDS011;25173;50.430;18.926;2023-02-28T02:55:26;14.00;;;7.95;;
39486;SDS011;25173;50.430;18.926;2023-02-28T02:58:30;15.02;;;8.13;;
39486;SDS011;25173;50.430;18.926;2023-02-28T03:01:34;19.02;;;9.00;;
39486;SDS011;25173;50.430;18.926;2023-02-28T03:04:40;16.38;;;8.25;;
39486;SDS011;25173;50.430;18.926;2023-02-28T03:07:44;16.42;;;9.10;;
39486;SDS011;25173;50.430;18.926;2023-02-28T03:10:46;14.80;;;8.65;;
39486;SDS011;25173;50.430;18.926;2023-02-28T03:20:29;17.35;;;9.77;;
39486;SDS011;25173;50.430;18.926;2023-02-28T03:26:54;16.55;;;8.95;;
39486;SDS011;25173;50.430;18.926;2023-02-28T03:33:19;16.13;;;9.02;;
39486;SDS011;25173;50.430;18.926;2023-02-28T03:36:25;15.50;;;9.27;;
39486;SDS011;25173;50.430;18.926;2023-02-28T03:39:49;17.73;;;9.68;;
39486;SDS011;25173;50.430;18.926;2023-02-28T03:43:00;17.40;;;9.85;;
39486;SDS011;25173;50.430;18.926;2023-02-28T03:46:09;17.02;;;11.10;;
39486;SDS011;25173;50.430;18.926;2023-02-28T03:49:17;20.42;;;10.98;;
39486;SDS011;25173;50.430;18.926;2023-02-28T03:52:27;21.30;;;10.65;;
39486;SDS011;25173;50.430;18.926;2023-02-28T03:55:37;22.20;;;10.50;;
39486;SDS011;25173;50.430;18.926;2023-02-28T03:58:47;21.75;;;11.07;;
39486;SDS011;25173;50.430;18.926;2023-02-28T04:01:49;21.52;;;10.70;;
39486;SDS011;25173;50.430;18.926;2023-02-28T04:04:50;20.25;;;11.45;;
39486;SDS011;25173;50.430;18.926;2023-02-28T04:07:51;20.52;;;10.15;;
39486;SDS011;25173;50.430;18.926;2023-02-28T04:10:57;16.65;;;10.18;;
39486;SDS011;25173;50.430;18.926;2023-02-28T04:14:04;18.40;;;10.35;;
39486;SDS011;25173;50.430;18.926;2023-02-28T04:17:06;22.17;;;11.15;;
39486;SDS011;25173;50.430;18.926;2023-02-28T04:20:07;31.02;;;16.70;;
39486;SDS011;25173;50.430;18.926;2023-02-28T04:23:09;33.13;;;17.27;;
39486;SDS011;25173;50.430;18.926;2023-02-28T04:26:10;29.50;;;16.52;;
39486;SDS011;25173;50.430;18.926;2023-02-28T04:29:11;27.55;;;14.60;;
39486;SDS011;25173;50.430;18.926;2023-02-28T04:32:14;30.23;;;14.77;;
39486;SDS011;25173;50.430;18.926;2023-02-28T04:35:14;24.67;;;12.75;;
39486;SDS011;25173;50.430;18.926;2023-02-28T04:38:15;25.27;;;12.85;;
39486;SDS011;25173;50.430;18.926;2023-02-28T04:41:16;25.75;;;12.95;;
39486;SDS011;25173;50.430;18.926;2023-02-28T04:44:17;21.90;;;12.48;;
39486;SDS011;25173;50.430;18.926;2023-02-28T04:47:17;19.20;;;10.10;;
39486;SDS011;25173;50.430;18.926;2023-02-28T04:50:18;20.15;;;11.40;;
39486;SDS011;25173;50.430;18.926;2023-02-28T04:53:18;19.08;;;11.00;;
39486;SDS011;25173;50.430;18.926;2023-02-28T04:56:20;21.63;;;11.75;;
39486;SDS011;25173;50.430;18.926;2023-02-28T04:59:20;20.17;;;11.68;;
39486;SDS011;25173;50.430;18.926;2023-02-28T05:02:21;19.27;;;11.68;;
39486;SDS011;25173;50.430;18.926;2023-02-28T05:05:21;24.75;;;12.05;;
39486;SDS011;25173;50.430;18.926;2023-02-28T05:08:22;17.50;;;10.20;;
39486;SDS011;25173;50.430;18.926;2023-02-28T05:11:24;20.65;;;11.48;;
39486;SDS011;25173;50.430;18.926;2023-02-28T05:14:24;22.27;;;12.75;;
39486;SDS011;25173;50.430;18.926;2023-02-28T05:17:25;27.88;;;14.60;;
39486;SDS011;25173;50.430;18.926;2023-02-28T05:20:26;23.65;;;13.55;;
39486;SDS011;25173;50.430;18.926;2023-02-28T05:23:26;26.50;;;14.20;;
39486;SDS011;25173;50.430;18.926;2023-02-28T05:26:28;35.70;;;19.30;;
39486;SDS011;25173;50.430;18.926;2023-02-28T05:29:30;56.28;;;27.73;;
39486;SDS011;25173;50.430;18.926;2023-02-28T05:32:30;67.20;;;31.27;;
39486;SDS011;25173;50.430;18.926;2023-02-28T05:35:31;84.47;;;41.30;;
39486;SDS011;25173;50.430;18.926;2023-02-28T05:38:32;140.15;;;64.05;;
39486;SDS011;25173;50.430;18.926;2023-02-28T05:41:32;121.43;;;56.38;;
39486;SDS011;25173;50.430;18.926;2023-02-28T05:44:33;106.15;;;48.50;;
39486;SDS011;25173;50.430;18.926;2023-02-28T05:47:34;79.13;;;41.63;;
39486;SDS011;25173;50.430;18.926;2023-02-28T05:50:35;73.40;;;35.35;;
39486;SDS011;25173;50.430;18.926;2023-02-28T05:53:36;59.35;;;30.70;;
39486;SDS011;25173;50.430;18.926;2023-02-28T05:56:37;56.15;;;30.20;;
39486;SDS011;25173;50.430;18.926;2023-02-28T05:59:40;46.08;;;23.73;;
39486;SDS011;25173;50.430;18.926;2023-02-28T06:02:40;45.65;;;24.50;;
39486;SDS011;25173;50.430;18.926;2023-02-28T06:05:50;32.58;;;19.73;;
39486;SDS011;25173;50.430;18.926;2023-02-28T06:08:52;32.10;;;18.75;;
39486;SDS011;25173;50.430;18.926;2023-02-28T06:11:57;33.20;;;19.05;;
39486;SDS011;25173;50.430;18.926;2023-02-28T06:15:04;45.22;;;24.48;;
39486;SDS011;25173;50.430;18.926;2023-02-28T06:18:05;58.80;;;29.80;;
39486;SDS011;25173;50.430;18.926;2023-02-28T06:21:16;52.25;;;27.45;;
39486;SDS011;25173;50.430;18.926;2023-02-28T06:24:17;56.03;;;28.45;;
39486;SDS011;25173;50.430;18.926;2023-02-28T06:27:17;43.25;;;22.77;;
39486;SDS011;25173;50.430;18.926;2023-02-28T06:30:18;71.35;;;35.67;;
39486;SDS011;25173;50.430;18.926;2023-02-28T06:33:19;74.28;;;35.08;;
39486;SDS011;25173;50.430;18.926;2023-02-28T06:36:38;60.22;;;28.35;;
39486;SDS011;25173;50.430;18.926;2023-02-28T06:39:39;36.65;;;18.23;;
39486;SDS011;25173;50.430;18.926;2023-02-28T06:42:40;38.05;;;19.63;;
39486;SDS011;25173;50.430;18.926;2023-02-28T06:45:42;42.88;;;20.00;;
39486;SDS011;25173;50.430;18.926;2023-02-28T06:48:44;42.40;;;21.65;;
39486;SDS011;25173;50.430;18.926;2023-02-28T06:51:45;28.67;;;16.23;;
39486;SDS011;25173;50.430;18.926;2023-02-28T06:54:46;22.98;;;13.88;;
39486;SDS011;25173;50.430;18.926;2023-02-28T06:57:46;24.25;;;13.32;;
39486;SDS011;25173;50.430;18.926;2023-02-28T07:00:49;25.83;;;11.80;;
39486;SDS011;25173;50.430;18.926;2023-02-28T07:03:51;20.05;;;11.05;;
39486;SDS011;25173;50.430;18.926;2023-02-28T07:06:52;20.55;;;10.93;;
39486;SDS011;25173;50.430;18.926;2023-02-28T07:09:56;20.75;;;11.15;;
39486;SDS011;25173;50.430;18.926;2023-02-28T07:12:56;18.35;;;10.90;;
39486;SDS011;25173;50.430;18.926;2023-02-28T07:15:58;17.00;;;9.98;;
39486;SDS011;25173;50.430;18.926;2023-02-28T07:19:01;17.38;;;10.07;;
39486;SDS011;25173;50.430;18.926;2023-02-28T07:22:01;24.65;;;9.95;;
39486;SDS011;25173;50.430;18.926;2023-02-28T07:25:03;16.98;;;10.45;;
39486;SDS011;25173;50.430;18.926;2023-02-28T07:28:03;17.50;;;10.02;;
39486;SDS011;25173;50.430;18.926;2023-02-28T07:31:05;17.20;;;10.77;;
39486;SDS011;25173;50.430;18.926;2023-02-28T07:34:06;21.13;;;10.38;;
39486;SDS011;25173;50.430;18.926;2023-02-28T07:37:07;19.73;;;11.70;;
39486;SDS011;25173;50.430;18.926;2023-02-28T07:40:09;20.48;;;11.48;;
39486;SDS011;25173;50.430;18.926;2023-02-28T07:43:13;17.48;;;11.02;;
39486;SDS011;25173;50.430;18.926;2023-02-28T07:46:15;21.02;;;11.57;;
39486;SDS011;25173;50.430;18.926;2023-02-28T07:49:16;20.27;;;11.52;;
39486;SDS011;25173;50.430;18.926;2023-02-28T07:52:17;26.33;;;14.60;;
39486;SDS011;25173;50.430;18.926;2023-02-28T07:55:17;24.60;;;14.40;;
39486;SDS011;25173;50.430;18.926;2023-02-28T07:58:18;24.10;;;14.50;;
39486;SDS011;25173;50.430;18.926;2023-02-28T08:01:19;31.48;;;14.32;;
39486;SDS011;25173;50.430;18.926;2023-02-28T08:04:20;23.27;;;13.73;;
39486;SDS011;25173;50.430;18.926;2023-02-28T08:07:20;26.58;;;14.98;;
39486;SDS011;25173;50.430;18.926;2023-02-28T08:10:21;27.02;;;12.90;;
39486;SDS011;25173;50.430;18.926;2023-02-28T08:13:21;28.42;;;14.93;;
39486;SDS011;25173;50.430;18.926;2023-02-28T08:16:22;33.83;;;19.60;;
39486;SDS011;25173;50.430;18.926;2023-02-28T08:19:23;35.65;;;19.67;;
39486;SDS011;25173;50.430;18.926;2023-02-28T08:22:23;157.10;;;72.65;;
39486;SDS011;25173;50.430;18.926;2023-02-28T08:25:24;82.82;;;46.42;;
39486;SDS011;25173;50.430;18.926;2023-02-28T08:28:25;21.55;;;13.02;;
39486;SDS011;25173;50.430;18.926;2023-02-28T08:31:25;22.70;;;13.82;;
39486;SDS011;25173;50.430;18.926;2023-02-28T08:34:26;22.45;;;12.55;;
39486;SDS011;25173;50.430;18.926;2023-02-28T08:37:26;131.55;;;102.30;;
39486;SDS011;25173;50.430;18.926;2023-02-28T08:40:27;93.47;;;83.32;;
39486;SDS011;25173;50.430;18.926;2023-02-28T08:43:28;120.05;;;108.90;;
39486;SDS011;25173;50.430;18.926;2023-02-28T08:46:28;19.15;;;13.02;;
39486;SDS011;25173;50.430;18.926;2023-02-28T08:49:29;16.08;;;10.20;;
39486;SDS011;25173;50.430;18.926;2023-02-28T08:52:30;22.52;;;11.57;;
39486;SDS011;25173;50.430;18.926;2023-02-28T08:55:30;17.85;;;10.45;;
39486;SDS011;25173;50.430;18.926;2023-02-28T08:58:31;21.00;;;11.18;;
39486;SDS011;25173;50.430;18.926;2023-02-28T09:01:32;16.52;;;8.73;;
39486;SDS011;25173;50.430;18.926;2023-02-28T09:04:33;12.93;;;8.15;;
39486;SDS011;25173;50.430;18.926;2023-02-28T09:07:34;13.85;;;8.30;;
39486;SDS011;25173;50.430;18.926;2023-02-28T09:10:35;15.30;;;8.65;;
39486;SDS011;25173;50.430;18.926;2023-02-28T09:13:36;14.48;;;9.00;;
39486;SDS011;25173;50.430;18.926;2023-02-28T09:16:37;12.88;;;8.68;;
39486;SDS011;25173;50.430;18.926;2023-02-28T09:19:37;18.77;;;9.73;;
39486;SDS011;25173;50.430;18.926;2023-02-28T09:22:38;14.48;;;9.18;;
39486;SDS011;25173;50.430;18.926;2023-02-28T09:25:45;16.58;;;9.27;;
39486;SDS011;25173;50.430;18.926;2023-02-28T09:28:51;15.88;;;10.73;;
39486;SDS011;25173;50.430;18.926;2023-02-28T09:31:52;13.30;;;8.30;;
39486;SDS011;25173;50.430;18.926;2023-02-28T09:34:53;24.85;;;15.38;;
39486;SDS011;25173;50.430;18.926;2023-02-28T09:37:54;15.10;;;9.80;;
39486;SDS011;25173;50.430;18.926;2023-02-28T09:40:56;15.50;;;9.23;;
39486;SDS011;25173;50.430;18.926;2023-02-28T09:44:00;27.27;;;16.60;;
39486;SDS011;25173;50.430;18.926;2023-02-28T09:47:24;16.55;;;10.63;;
39486;SDS011;25173;50.430;18.926;2023-02-28T09:53:36;19.05;;;11.05;;
39486;SDS011;25173;50.430;18.926;2023-02-28T09:56:40;14.88;;;10.15;;
39486;SDS011;25173;50.430;18.926;2023-02-28T09:59:51;15.85;;;9.77;;
39486;SDS011;25173;50.430;18.926;2023-02-28T10:02:59;16.42;;;11.43;;
39486;SDS011;25173;50.430;18.926;2023-02-28T10:09:26;14.38;;;8.63;;
39486;SDS011;25173;50.430;18.926;2023-02-28T10:12:32;16.30;;;9.50;;
39486;SDS011;25173;50.430;18.926;2023-02-28T10:15:33;16.75;;;9.95;;
39486;SDS011;25173;50.430;18.926;2023-02-28T10:21:47;23.35;;;17.23;;
39486;SDS011;25173;50.430;18.926;2023-02-28T10:24:55;18.75;;;9.50;;
39486;SDS011;25173;50.430;18.926;2023-02-28T10:28:21;16.70;;;9.63;;
39486;SDS011;25173;50.430;18.926;2023-02-28T10:31:21;15.20;;;9.63;;
39486;SDS011;25173;50.430;18.926;2023-02-28T10:34:21;19.05;;;9.60;;
39486;SDS011;25173;50.430;18.926;2023-02-28T10:37:22;14.38;;;8.60;;
39486;SDS011;25173;50.430;18.926;2023-02-28T10:43:23;15.70;;;9.95;;
39486;SDS011;25173;50.430;18.926;2023-02-28T10:46:24;16.45;;;9.05;;
39486;SDS011;25173;50.430;18.926;2023-02-28T10:49:26;15.73;;;9.48;;
39486;SDS011;25173;50.430;18.926;2023-02-28T10:52:36;15.07;;;9.27;;
39486;SDS011;25173;50.430;18.926;2023-02-28T10:55:38;14.20;;;9.32;;
39486;SDS011;25173;50.430;18.926;2023-02-28T11:01:49;15.65;;;9.18;;
39486;SDS011;25173;50.430;18.926;2023-02-28T11:04:52;14.93;;;8.98;;
39486;SDS011;25173;50.430;18.926;2023-02-28T11:07:54;18.38;;;10.35;;
39486;SDS011;25173;50.430;18.926;2023-02-28T11:11:12;18.33;;;10.43;;
39486;SDS011;25173;50.430;18.926;2023-02-28T11:14:27;18.60;;;10.27;;
39486;SDS011;25173;50.430;18.926;2023-02-28T11:17:30;17.75;;;9.80;;
39486;SDS011;25173;50.430;18.926;2023-02-28T11:20:32;14.90;;;8.80;;
39486;SDS011;25173;50.430;18.926;2023-02-28T11:23:35;14.18;;;9.00;;
39486;SDS011;25173;50.430;18.926;2023-02-28T11:26:41;13.15;;;8.85;;
39486;SDS011;25173;50.430;18.926;2023-02-28T11:29:46;17.00;;;9.18;;
39486;SDS011;25173;50.430;18.926;2023-02-28T11:32:48;14.30;;;9.05;;
39486;SDS011;25173;50.430;18.926;2023-02-28T11:35:50;13.65;;;9.07;;
39486;SDS011;25173;50.430;18.926;2023-02-28T11:38:56;14.10;;;9.40;;
39486;SDS011;25173;50.430;18.926;2023-02-28T11:49:22;14.48;;;9.02;;
39486;SDS011;25173;50.430;18.926;2023-02-28T11:52:24;17.00;;;9.65;;
39486;SDS011;25173;50.430;18.926;2023-02-28T11:55:49;18.17;;;13.80;;
39486;SDS011;25173;50.430;18.926;2023-02-28T12:12:42;17.40;;;10.50;;
39486;SDS011;25173;50.430;18.926;2023-02-28T12:19:04;14.32;;;9.23;;
39486;SDS011;25173;50.430;18.926;2023-02-28T12:22:17;12.25;;;9.48;;
39486;SDS011;25173;50.430;18.926;2023-02-28T12:28:59;13.18;;;8.85;;
39486;SDS011;25173;50.430;18.926;2023-02-28T12:32:13;14.93;;;9.75;;
39486;SDS011;25173;50.430;18.926;2023-02-28T12:35:26;16.15;;;9.90;;
39486;SDS011;25173;50.430;18.926;2023-02-28T12:39:08;15.40;;;9.73;;
39486;SDS011;25173;50.430;18.926;2023-02-28T12:42:08;16.23;;;9.15;;
39486;SDS011;25173;50.430;18.926;2023-02-28T12:45:22;14.52;;;9.35;;
39486;SDS011;25173;50.430;18.926;2023-02-28T12:51:43;15.98;;;8.63;;
39486;SDS011;25173;50.430;18.926;2023-02-28T12:55:08;17.63;;;10.73;;
39486;SDS011;25173;50.430;18.926;2023-02-28T13:07:34;13.80;;;8.98;;
39486;SDS011;25173;50.430;18.926;2023-02-28T13:10:38;11.02;;;8.45;;
39486;SDS011;25173;50.430;18.926;2023-02-28T13:13:41;14.20;;;9.32;;
39486;SDS011;25173;50.430;18.926;2023-02-28T13:16:50;13.40;;;8.18;;
39486;SDS011;25173;50.430;18.926;2023-02-28T13:22:55;17.00;;;8.75;;
39486;SDS011;25173;50.430;18.926;2023-02-28T13:25:57;14.77;;;9.10;;
39486;SDS011;25173;50.430;18.926;2023-02-28T13:28:59;19.10;;;9.68;;
39486;SDS011;25173;50.430;18.926;2023-02-28T13:38:12;14.00;;;9.15;;
39486;SDS011;25173;50.430;18.926;2023-02-28T13:44:29;16.55;;;10.82;;
39486;SDS011;25173;50.430;18.926;2023-02-28T13:47:31;31.75;;;17.33;;
39486;SDS011;25173;50.430;18.926;2023-02-28T13:50:35;55.72;;;25.45;;
39486;SDS011;25173;50.430;18.926;2023-02-28T13:53:53;23.17;;;12.52;;
39486;SDS011;25173;50.430;18.926;2023-02-28T13:57:08;21.95;;;13.93;;
39486;SDS011;25173;50.430;18.926;2023-02-28T14:07:25;13.45;;;9.13;;
39486;SDS011;25173;50.430;18.926;2023-02-28T14:13:36;14.85;;;9.68;;
39486;SDS011;25173;50.430;18.926;2023-02-28T14:16:45;20.30;;;14.67;;
39486;SDS011;25173;50.430;18.926;2023-02-28T14:19:48;18.23;;;10.15;;
39486;SDS011;25173;50.430;18.926;2023-02-28T14:23:01;13.00;;;9.73;;
39486;SDS011;25173;50.430;18.926;2023-02-28T14:32:54;18.08;;;11.45;;
39486;SDS011;25173;50.430;18.926;2023-02-28T14:39:36;23.75;;;14.63;;
39486;SDS011;25173;50.430;18.926;2023-02-28T14:42:45;19.00;;;10.88;;
39486;SDS011;25173;50.430;18.926;2023-02-28T14:45:49;21.45;;;13.05;;
39486;SDS011;25173;50.430;18.926;2023-02-28T14:48:52;19.33;;;12.52;;
39486;SDS011;25173;50.430;18.926;2023-02-28T14:55:12;13.73;;;9.45;;
39486;SDS011;25173;50.430;18.926;2023-02-28T14:58:33;16.40;;;9.00;;
39486;SDS011;25173;50.430;18.926;2023-02-28T15:01:34;14.25;;;9.27;;
39486;SDS011;25173;50.430;18.926;2023-02-28T15:04:35;12.32;;;8.13;;
39486;SDS011;25173;50.430;18.926;2023-02-28T15:07:36;13.90;;;8.73;;
39486;SDS011;25173;50.430;18.926;2023-02-28T15:10:36;14.77;;;9.48;;
39486;SDS011;25173;50.430;18.926;2023-02-28T15:13:45;16.30;;;10.95;;
39486;SDS011;25173;50.430;18.926;2023-02-28T15:16:50;16.02;;;10.80;;
39486;SDS011;25173;50.430;18.926;2023-02-28T15:19:55;16.80;;;10.85;;
39486;SDS011;25173;50.430;18.926;2023-02-28T15:22:56;16.02;;;9.25;;
39486;SDS011;25173;50.430;18.926;2023-02-28T15:25:57;14.82;;;10.23;;
39486;SDS011;25173;50.430;18.926;2023-02-28T15:28:59;15.63;;;9.73;;
39486;SDS011;25173;50.430;18.926;2023-02-28T15:32:16;16.45;;;10.90;;
39486;SDS011;25173;50.430;18.926;2023-02-28T15:38:26;20.67;;;12.38;;
39486;SDS011;25173;50.430;18.926;2023-02-28T15:41:34;24.15;;;14.98;;
39486;SDS011;25173;50.430;18.926;2023-02-28T15:44:39;19.48;;;11.68;;
39486;SDS011;25173;50.430;18.926;2023-02-28T15:47:40;19.35;;;12.23;;
39486;SDS011;25173;50.430;18.926;2023-02-28T15:50:48;31.92;;;19.00;;
39486;SDS011;25173;50.430;18.926;2023-02-28T15:53:59;30.70;;;17.90;;
39486;SDS011;25173;50.430;18.926;2023-02-28T15:57:05;25.27;;;14.73;;
39486;SDS011;25173;50.430;18.926;2023-02-28T16:00:11;24.17;;;16.17;;
39486;SDS011;25173;50.430;18.926;2023-02-28T16:03:27;28.13;;;17.17;;
39486;SDS011;25173;50.430;18.926;2023-02-28T16:06:38;33.75;;;19.95;;
39486;SDS011;25173;50.430;18.926;2023-02-28T16:09:39;34.25;;;20.45;;
39486;SDS011;25173;50.430;18.926;2023-02-28T16:12:42;27.52;;;17.38;;
39486;SDS011;25173;50.430;18.926;2023-02-28T16:15:43;30.92;;;18.55;;
39486;SDS011;25173;50.430;18.926;2023-02-28T16:18:44;32.17;;;16.65;;
39486;SDS011;25173;50.430;18.926;2023-02-28T16:21:45;20.98;;;12.18;;
39486;SDS011;25173;50.430;18.926;2023-02-28T16:24:46;18.98;;;11.15;;
39486;SDS011;25173;50.430;18.926;2023-02-28T16:27:48;19.65;;;11.43;;
39486;SDS011;25173;50.430;18.926;2023-02-28T16:30:51;18.98;;;10.90;;
39486;SDS011;25173;50.430;18.926;2023-02-28T16:33:52;19.90;;;10.85;;
39486;SDS011;25173;50.430;18.926;2023-02-28T16:36:53;15.40;;;10.88;;
39486;SDS011;25173;50.430;18.926;2023-02-28T16:39:53;16.40;;;11.18;;
39486;SDS011;25173;50.430;18.926;2023-02-28T16:42:55;16.67;;;11.75;;
39486;SDS011;25173;50.430;18.926;2023-02-28T16:45:59;18.48;;;10.25;;
39486;SDS011;25173;50.430;18.926;2023-02-28T16:49:01;21.20;;;12.35;;
39486;SDS011;25173;50.430;18.926;2023-02-28T16:52:02;20.90;;;13.52;;
39486;SDS011;25173;50.430;18.926;2023-02-28T16:55:03;36.58;;;19.38;;
39486;SDS011;25173;50.430;18.926;2023-02-28T16:58:03;54.38;;;26.30;;
39486;SDS011;25173;50.430;18.926;2023-02-28T17:01:04;78.97;;;41.15;;
39486;SDS011;25173;50.430;18.926;2023-02-28T17:04:05;47.72;;;24.05;;
39486;SDS011;25173;50.430;18.926;2023-02-28T17:07:08;49.33;;;24.65;;
39486;SDS011;25173;50.430;18.926;2023-02-28T17:10:17;51.30;;;27.27;;
39486;SDS011;25173;50.430;18.926;2023-02-28T17:13:19;69.93;;;34.30;;
39486;SDS011;25173;50.430;18.926;2023-02-28T17:19:30;89.55;;;45.33;;
39486;SDS011;25173;50.430;18.926;2023-02-28T17:22:31;118.13;;;57.92;;
39486;SDS011;25173;50.430;18.926;2023-02-28T17:25:32;180.75;;;92.90;;
39486;SDS011;25173;50.430;18.926;2023-02-28T17:28:33;218.52;;;105.93;;
39486;SDS011;25173;50.430;18.926;2023-02-28T17:31:33;201.88;;;102.63;;
39486;SDS011;25173;50.430;18.926;2023-02-28T17:34:38;197.38;;;95.03;;
39486;SDS011;25173;50.430;18.926;2023-02-28T17:37:39;176.70;;;91.82;;
39486;SDS011;25173;50.430;18.926;2023-02-28T17:40:40;212.80;;;108.80;;
39486;SDS011;25173;50.430;18.926;2023-02-28T17:43:40;243.15;;;123.18;;
39486;SDS011;25173;50.430;18.926;2023-02-28T17:46:41;214.20;;;111.72;;
39486;SDS011;25173;50.430;18.926;2023-02-28T17:49:42;166.90;;;89.30;;
39486;SDS011;25173;50.430;18.926;2023-02-28T17:52:44;174.35;;;89.53;;
39486;SDS011;25173;50.430;18.926;2023-02-28T17:55:44;159.65;;;80.75;;
39486;SDS011;25173;50.430;18.926;2023-02-28T17:58:45;165.13;;;87.30;;
39486;SDS011;25173;50.430;18.926;2023-02-28T18:01:45;149.77;;;81.05;;
39486;SDS011;25173;50.430;18.926;2023-02-28T18:04:46;149.32;;;76.90;;
39486;SDS011;25173;50.430;18.926;2023-02-28T18:07:46;132.60;;;72.30;;
39486;SDS011;25173;50.430;18.926;2023-02-28T18:10:47;134.98;;;73.35;;
39486;SDS011;25173;50.430;18.926;2023-02-28T18:13:49;151.52;;;77.47;;
39486;SDS011;25173;50.430;18.926;2023-02-28T18:16:52;146.02;;;75.13;;
39486;SDS011;25173;50.430;18.926;2023-02-28T18:19:54;152.93;;;80.57;;
39486;SDS011;25173;50.430;18.926;2023-02-28T18:22:54;147.70;;;81.03;;
39486;SDS011;25173;50.430;18.926;2023-02-28T18:25:55;165.77;;;84.97;;
39486;SDS011;25173;50.430;18.926;2023-02-28T18:28:56;157.30;;;82.53;;
39486;SDS011;25173;50.430;18.926;2023-02-28T18:31:56;173.35;;;92.18;;
39486;SDS011;25173;50.430;18.926;2023-02-28T18:34:57;210.52;;;107.10;;
39486;SDS011;25173;50.430;18.926;2023-02-28T18:37:57;205.40;;;102.40;;
39486;SDS011;25173;50.430;18.926;2023-02-28T18:40:59;218.48;;;110.53;;
39486;SDS011;25173;50.430;18.926;2023-02-28T18:44:02;229.27;;;117.75;;
39486;SDS011;25173;50.430;18.926;2023-02-28T18:47:07;221.85;;;115.53;;
39486;SDS011;25173;50.430;18.926;2023-02-28T18:50:08;267.85;;;134.05;;
39486;SDS011;25173;50.430;18.926;2023-02-28T18:53:09;234.88;;;123.22;;
39486;SDS011;25173;50.430;18.926;2023-02-28T18:56:11;273.40;;;134.80;;
39486;SDS011;25173;50.430;18.926;2023-02-28T18:59:15;229.53;;;122.93;;
39486;SDS011;25173;50.430;18.926;2023-02-28T19:02:16;278.10;;;141.38;;
39486;SDS011;25173;50.430;18.926;2023-02-28T19:05:17;354.20;;;175.60;;
39486;SDS011;25173;50.430;18.926;2023-02-28T19:08:18;590.90;;;319.48;;
39486;SDS011;25173;50.430;18.926;2023-02-28T19:11:19;332.42;;;157.93;;
39486;SDS011;25173;50.430;18.926;2023-02-28T19:14:20;273.05;;;142.25;;
39486;SDS011;25173;50.430;18.926;2023-02-28T19:17:21;298.00;;;156.00;;
39486;SDS011;25173;50.430;18.926;2023-02-28T19:20:21;263.27;;;135.63;;
39486;SDS011;25173;50.430;18.926;2023-02-28T19:23:22;296.52;;;128.10;;
39486;SDS011;25173;50.430;18.926;2023-02-28T19:26:23;253.05;;;114.28;;
39486;SDS011;25173;50.430;18.926;2023-02-28T19:29:25;241.65;;;116.60;;
39486;SDS011;25173;50.430;18.926;2023-02-28T19:32:25;256.33;;;119.85;;
39486;SDS011;25173;50.430;18.926;2023-02-28T19:35:26;258.85;;;121.28;;
39486;SDS011;25173;50.430;18.926;2023-02-28T19:38:27;249.77;;;123.00;;
39486;SDS011;25173;50.430;18.926;2023-02-28T19:41:27;255.63;;;120.28;;
39486;SDS011;25173;50.430;18.926;2023-02-28T19:44:28;270.17;;;132.18;;
39486;SDS011;25173;50.430;18.926;2023-02-28T19:47:28;240.85;;;121.97;;
39486;SDS011;25173;50.430;18.926;2023-02-28T19:50:30;244.45;;;114.80;;
39486;SDS011;25173;50.430;18.926;2023-02-28T19:53:31;226.27;;;102.47;;
39486;SDS011;25173;50.430;18.926;2023-02-28T19:56:33;202.55;;;99.38;;